VAAU

Details ICAO VAAU (IXU)
Name AURANGABAD
Region India
Timezone Asia/Kolkata (UTC+5.5)
Plans Departing 12
Arriving 13
Stats Elevation 1,911 ft / 582 m (AMSL)
Location 19.862727° 75.398112°
Runways 1
Magnetic Variation 0.145° W
Sunrise 2017-12-16 01:27:15 UTC / 2017-12-16 06:57:15 Local
Sunset 2017-12-16 12:23:24 UTC / 2017-12-16 17:53:24 Local
Advertisement - Login to hide

Runways

ID Width Length Bearing (true) Bearing (mag) Surface Threshold Offset Overrun Length
09 148 ft / 45 m 7,703 ft / 2,348 m 87.94° 88.09° Asphalt 0 ft / 0 m 190 ft / 58 m
27 148 ft / 45 m 7,703 ft / 2,348 m 267.94° 268.09° Asphalt 0 ft / 0 m 200 ft / 61 m

Approach Navaids

Runway Type Ident Frequency Range Bearing (true) Bearing (mag) Slope Elevation
27 Localiser AUR 110.10 MHz 18 nm / 33 km 269.66° 269.81° - 1,911 ft / 582 m (AMSL)
27 Glidescope AUR 110.10 MHz 10 nm / 19 km 267.94° 268.09° 3.00° 1,911 ft / 582 m (AMSL)
27 DME AUR 110.10 MHz 18 nm / 33 km - - - 1,857 ft / 566 m (AMSL)

Map

Weather


0- 5 10 15 20 25 30 35+ Temperature / ° C

Clouds and Precipitation
Forecast for 2017-12-16 12:00 UTC. Updated 2 hours ago

Ground ~20,000 ft ~40,000 ft Winds

METAR

VAAU 161200Z 09003KT 4000 HZ NSC 27/11 Q1017 NOSIG

TAF

Not found

Frequencies

Recorded 127.00 MHz ATIS
Approach 122.30 MHz APP
Tower 122.30 MHz TWR
Warning: Do not use this data for real-world aviation or navigation. No guarantee of current accuracy is given.